Hlavní strana
METAR-TAF:

METAR-TAF

Letiště :

Ghat, Libye

zeměpisná šířka: 25-08N, zeměpisná délka: 010-09E, výška: 699 m

METAR: chybějící

Čas: 23:45 (21:45 UTC)

Předpověď počasí

Zpráva byla vytvořena před 4 hodinami a 45 minutami, v 17:00 UTC
Předpověď platná od 18 v 18 UTC do 19 v 03 UTC
Severoseverovýchodní vítr 10 kt
Viditelnost 10 km a více
Žádná oblačnost pod 1500 m, nevyskytují se cumulonimby.
Změna
od 18 v 22 UTC do 18 v 24 UTC
vítr z různých směrů 2 kt

TAF: HLGT 181700Z 1818/1903 03010KT CAVOK BECMG 1822/1824 VRB02KT

Stav a předpovědi počasí z více než 4 000 letišť (zprávy METAR a TAF).

Červené a žluté tečky na mapě představují dostupné meteorologické stanice.

Když kurzor umístíte na tečku, zobrazí se název stanice.

Pak kliknutím zobrazíte stav a předpověď počasí.

Chcete-li změnit mapu, kliknutím na zelené tlačítko se znaménkem +mapu přiblížíte, kliknutím na zelené tlačítko se znaménkem – mapu oddálíte a kliknutím na zelené šipky přejdete na sousední mapy.


METAR-TAF: